Zao Galaxy — V7YK9 — position and weather

sailwx.info

Track history (hours):
 
Tides and Currents Weather Stations Pressure Air Temp Water Temp Dewpoint Dewpoint Depression Visibility Wind Speed Wind Dir Waves Ship Positions

Zao Galaxy

Last reported at 2018-Feb-11 03:28 UTC. Time now 2018-Feb-17 19:36 UTC.
Position N 48°31' W 126°28'.

Length 159 m; draft 10 m.

Type: Ship (hazmat cat B). MMSI: 538004682.

Date/timePositionNaut miles runAvg speedWind from/ knotsBaromVisibWave heightAir tempDewpointWater temp
2018-Feb-11 03:28N 48°31' W 126°28'713.4
2018-Feb-11 02:59N 48°31' W 126°18'613.4
2018-Feb-11 02:30N 48°31' W 126°09'713.1
2018-Feb-11 02:00N 48°31' W 125°58'613.3
2018-Feb-11 01:30N 48°31' W 125°49'713.1
2018-Feb-11 01:00N 48°31' W 125°39'713.2
2018-Feb-11 00:30N 48°31' W 125°29'713.2
2018-Feb-11 00:00N 48°31' W 125°19'713.8
2018-Feb-10 23:30N 48°31' W 125°08'714.3
2018-Feb-10 23:01N 48°31' W 124°58'714.1
2018-Feb-10 22:31N 48°31' W 124°47'714.5
2018-Feb-10 22:01N 48°29' W 124°37'714.4
2018-Feb-10 21:31N 48°26' W 124°27'714.3
2018-Feb-10 21:00N 48°23' W 124°17'714.0
2018-Feb-10 20:31N 48°21' W 124°07'714.0
2018-Feb-10 20:00N 48°17' W 123°57'714.1
2018-Feb-10 19:30N 48°16' W 123°47'1510.4
2018-Feb-10 18:05N 48°21' W 123°26'210.9
2018-Feb-10 17:54N 48°23' W 123°24'410.1
2018-Feb-10 17:30N 48°23' W 123°18'611.4
2018-Feb-10 17:00N 48°27' W 123°12'713.9
2018-Feb-10 16:31N 48°34' W 123°13'714.0
2018-Feb-10 16:00N 48°41' W 123°15'612.8
2018-Feb-10 15:30N 48°45' W 123°08'612.2
2018-Feb-10 15:01N 48°49' W 123°01'713.7
2018-Feb-10 14:30N 48°54' W 123°08'713.8
2018-Feb-10 14:00N 48°59' W 123°16'713.7
2018-Feb-10 13:30N 49°03' W 123°23'612.9
2018-Feb-10 13:00N 49°10' W 123°23'713.7
2018-Feb-10 12:30N 49°16' W 123°21'612.1
2018-Feb-10 12:01N 49°19' W 123°12'3 6.8
2018-Feb-10 11:30N 49°19' W 123°07'4 7.8
2018-Feb-10 11:01N 49°18' W 123°02'3 5.4
2018-Feb-10 10:30N 49°18' W 122°57'3 5.1
2018-Feb-10 10:01N 49°18' W 122°54'1 1.9
2018-Feb-10 09:31N 49°17' W 122°52'0 0.0
2018-Feb-10 09:00N 49°17' W 122°52'0 0.0
2018-Feb-10 08:30N 49°17' W 122°52'0 0.0
2018-Feb-10 07:44N 49°17' W 122°52'0 0.0
2018-Feb-10 07:29N 49°17' W 122°52'0 0.0
2018-Feb-10 06:53N 49°17' W 122°52'0 0.0
2018-Feb-10 06:26N 49°17' W 122°52'0 0.0
2018-Feb-10 05:56N 49°17' W 122°52'0 0.0
2018-Feb-10 05:29N 49°17' W 122°52'0 0.0
2018-Feb-10 04:53N 49°17' W 122°52'0 0.0
2018-Feb-10 04:08N 49°17' W 122°52'0 0.0
2018-Feb-10 03:59N 49°17' W 122°52'0 0.0
2018-Feb-10 03:29N 49°17' W 122°52'0 0.0
2018-Feb-10 02:53N 49°17' W 122°52'0 0.0
2018-Feb-10 01:56N 49°17' W 122°52'0 0.0
2018-Feb-10 01:26N 49°17' W 122°52'0 0.0
2018-Feb-10 00:56N 49°17' W 122°52'0 0.0
2018-Feb-09 23:11N 49°17' W 122°52'0 0.0
2018-Feb-09 22:41N 49°17' W 122°52'0 0.0
2018-Feb-08 01:17N 49°17' W 122°52'0 0.0
2018-Feb-08 00:59N 49°17' W 122°52'0 0.0
2018-Feb-08 00:29N 49°17' W 122°52'0 0.0
2018-Feb-07 23:47N 49°17' W 122°52'0 0.0
2018-Feb-07 23:23N 49°17' W 122°52'0 0.0
2018-Feb-07 22:59N 49°17' W 122°52'0 0.0
2018-Feb-07 21:35N 49°17' W 122°52'0 0.0
2018-Feb-07 21:17N 49°17' W 122°52'0 0.0
2018-Feb-07 09:29N 49°17' W 122°52'0 0.0
2018-Feb-07 08:59N 49°17' W 122°52'0 0.0
2018-Feb-07 08:29N 49°17' W 122°52'0 0.9
2018-Feb-07 08:00N 49°18' W 122°53'3 6.4
2018-Feb-07 07:30N 49°18' W 122°58'3 7.0
2018-Feb-07 07:00N 49°18' W 123°03'1 1.3
2018-Feb-07 06:30N 49°18' W 123°04'0 0.1
2018-Feb-07 05:59N 49°18' W 123°04'0 0.1
2018-Feb-07 05:29N 49°18' W 123°04'0 0.1
2018-Feb-07 04:59N 49°18' W 123°04'0 0.1
2018-Feb-07 04:29N 49°18' W 123°04'0 0.1
2018-Feb-07 03:59N 49°18' W 123°04'0 0.0
2018-Feb-07 03:29N 49°18' W 123°04'0 0.0
2018-Feb-07 02:59N 49°18' W 123°04'0 0.0
2018-Feb-07 02:29N 49°18' W 123°04'0 0.1
2018-Feb-07 01:59N 49°18' W 123°04'0 0.0
2018-Feb-07 01:29N 49°18' W 123°04'0 0.1
2018-Feb-07 00:59N 49°18' W 123°04'0 0.0
2018-Feb-07 00:29N 49°18' W 123°04'0 0.1
2018-Feb-06 23:59N 49°18' W 123°04'0 0.1
2018-Feb-06 23:29N 49°18' W 123°04'0 0.0
2018-Feb-06 22:59N 49°18' W 123°04'0 0.1
2018-Feb-06 22:29N 49°18' W 123°04'0 0.0
2018-Feb-06 21:59N 49°18' W 123°04'0 0.1
2018-Feb-06 21:29N 49°18' W 123°04'0 0.0
2018-Feb-06 20:59N 49°18' W 123°04'0 0.0
2018-Feb-06 20:29N 49°18' W 123°04'0 0.0
2018-Feb-06 19:59N 49°18' W 123°04'0 0.2
2018-Feb-06 19:29N 49°18' W 123°04'0 0.2
2018-Feb-06 18:59N 49°18' W 123°04'0 0.0
2018-Feb-06 18:29N 49°18' W 123°04'0 0.1
2018-Feb-06 17:59N 49°18' W 123°04'0 0.0
2018-Feb-06 17:29N 49°18' W 123°04'0 0.0
2018-Feb-06 16:59N 49°18' W 123°04'0 0.1
2018-Feb-06 16:29N 49°18' W 123°04'0 0.1
2018-Feb-06 15:59N 49°18' W 123°04'0 0.0
2018-Feb-06 15:29N 49°18' W 123°04'0 0.1
2018-Feb-06 14:59N 49°18' W 123°04'0 0.1
2018-Feb-06 14:29N 49°18' W 123°04'0 0.0
2018-Feb-06 13:59N 49°18' W 123°04'0 0.1
2018-Feb-06 13:29N 49°18' W 123°04'0 0.0
2018-Feb-06 12:59N 49°18' W 123°04'0 0.5
2018-Feb-06 12:30N 49°18' W 123°04'3 5.8
2018-Feb-06 12:00N 49°19' W 123°08'612.8
2018-Feb-06 11:30N 49°17' W 123°18'714.0
2018-Feb-06 11:00N 49°10' W 123°20'713.7
2018-Feb-06 10:30N 49°03' W 123°19'714.1
2018-Feb-06 10:00N 48°58' W 123°12'713.2
2018-Feb-06 09:30N 48°53' W 123°05'612.8
2018-Feb-06 09:00N 48°48' W 123°01'713.4
2018-Feb-06 08:30N 48°44' W 123°09'511.0
2018-Feb-06 08:00N 48°39' W 123°14'713.4
2018-Feb-06 07:30N 48°33' W 123°12'713.1
2018-Feb-06 07:00N 48°26' W 123°11'713.1
2018-Feb-06 06:30N 48°22' W 123°18'4 8.7
2018-Feb-06 06:00N 48°20' W 123°24'2710.8
2018-Feb-06 03:30N 48°16' W 124°05'5 9.4
2018-Feb-06 03:00N 48°18' W 124°11'5 9.1
2018-Feb-06 02:30N 48°20' W 124°17'613.0
2018-Feb-06 02:00N 48°23' W 124°26'612.6
2018-Feb-06 01:30N 48°26' W 124°35'612.7
2018-Feb-06 01:00N 48°28' W 124°43'612.2
2018-Feb-06 00:30N 48°28' W 124°53'611.1
2018-Feb-06 00:00N 48°27' W 125°01'611.8
2018-Feb-05 23:30N 48°22' W 125°05'713.5
2018-Feb-05 22:59N 48°16' W 125°11'713.1
2018-Feb-05 22:28N 48°12' W 125°19'10413.9
2018-Feb-05 14:57N 47°08' W 127°21'26413.8
2018-Feb-04 19:51N 43°01' W 129°35'515.8
2018-Feb-04 19:31N 42°56' W 129°35'815.8
2018-Feb-04 19:00N 42°47' W 129°36'31614.9
2018-Feb-03 21:46N 37°40' W 128°01'1115.0
2018-Feb-03 21:00N 37°29' W 127°55'814.8
2018-Feb-03 20:27N 37°22' W 127°51'914.8
2018-Feb-03 19:49N 37°13' W 127°46'1914.5
2018-Feb-03 18:30N 36°55' W 127°38'714.4
2018-Feb-03 18:01N 36°48' W 127°35'714.7
2018-Feb-03 17:30N 36°41' W 127°32'714.7
2018-Feb-03 17:00N 36°35' W 127°28'1715.0
2018-Feb-03 15:53N 36°20' W 127°19'714.9
2018-Feb-03 15:26N 36°14' W 127°15'1114.6
2018-Feb-03 14:40N 36°04' W 127°09'214.6
2018-Feb-03 14:30N 36°02' W 127°08'14414.6
2018-Feb-03 04:39N 34°09' W 125°19'1113.8
2018-Feb-03 03:53N 34°00' W 125°11'513.8
2018-Feb-03 03:29N 33°55' W 125°08'4913.1
2018-Feb-02 23:43N 33°41' W 124°12'414.8
2018-Feb-02 23:26N 33°41' W 124°06'614.6
2018-Feb-02 23:00N 33°41' W 123°59'713.7
2018-Feb-02 22:30N 33°41' W 123°51'713.2
2018-Feb-02 22:00N 33°40' W 123°43'713.1
2018-Feb-02 21:30N 33°39' W 123°35'713.2
2018-Feb-02 20:58N 33°38' W 123°27'613.4
2018-Feb-02 20:31N 33°38' W 123°19'713.7
2018-Feb-02 20:00N 33°38' W 123°11'1414.1
2018-Feb-02 19:00N 33°39' W 122°54'714.2
2018-Feb-02 18:30N 33°39' W 122°46'713.7
2018-Feb-02 18:00N 33°39' W 122°37'713.7
2018-Feb-02 17:30N 33°38' W 122°29'713.8
2018-Feb-02 17:00N 33°38' W 122°21'713.9
2018-Feb-02 16:30N 33°38' W 122°12'1413.8
2018-Feb-02 15:30N 33°38' W 121°56'1413.7
2018-Feb-02 14:30N 33°38' W 121°40'713.9
2018-Feb-02 14:00N 33°38' W 121°31'713.8
2018-Feb-02 13:30N 33°38' W 121°23'713.7
2018-Feb-02 13:00N 33°38' W 121°14'713.2
2018-Feb-02 12:29N 33°38' W 121°06'613.1
2018-Feb-02 12:00N 33°38' W 120°59'713.1
2018-Feb-02 11:27N 33°37' W 120°50'613.1
2018-Feb-02 11:00N 33°37' W 120°43'613.2
2018-Feb-02 10:30N 33°37' W 120°35'713.4
2018-Feb-02 10:00N 33°37' W 120°27'713.3
2018-Feb-02 09:30N 33°37' W 120°19'713.3
2018-Feb-02 09:00N 33°37' W 120°11'713.8
2018-Feb-02 08:31N 33°37' W 120°03'713.8
2018-Feb-02 08:00N 33°37' W 119°55'714.0
2018-Feb-02 07:30N 33°37' W 119°46'714.2
2018-Feb-02 07:00N 33°38' W 119°38'713.9
2018-Feb-02 06:30N 33°38' W 119°29'714.0
2018-Feb-02 06:00N 33°38' W 119°21'714.1
2018-Feb-02 05:30N 33°39' W 119°12'612.5
2018-Feb-02 04:59N 33°38' W 119°05'612.0
2018-Feb-02 04:30N 33°38' W 118°58'611.9
2018-Feb-02 03:59N 33°37' W 118°50'510.2
2018-Feb-02 03:29N 33°37' W 118°44'510.3
2018-Feb-02 02:59N 33°36' W 118°38'510.3
2018-Feb-02 02:28N 33°36' W 118°32'611.5
2018-Feb-02 01:57N 33°35' W 118°24'510.6
2018-Feb-02 01:30N 33°35' W 118°19'4 9.0
2018-Feb-02 01:00N 33°37' W 118°14'4 8.8
2018-Feb-02 00:30N 33°41' W 118°12'3 5.6
2018-Feb-02 00:00N 33°43' W 118°13'0 0.5
2018-Feb-01 23:29N 33°43' W 118°14'0 0.0
2018-Feb-01 22:59N 33°43' W 118°14'0 0.0
2018-Feb-01 21:59N 33°43' W 118°14'0 0.0
2018-Feb-01 21:29N 33°43' W 118°14'0 0.0
2018-Feb-01 19:29N 33°43' W 118°14'0 0.1
2018-Feb-01 18:59N 33°43' W 118°14'0 0.1
2018-Feb-01 18:29N 33°43' W 118°14'0 0.1
2018-Feb-01 17:59N 33°43' W 118°14'0 0.0
2018-Feb-01 17:29N 33°43' W 118°14'0 0.0
2018-Feb-01 16:59N 33°43' W 118°14'0 0.1
2018-Feb-01 16:29N 33°43' W 118°14'0 0.0
2018-Feb-01 15:59N 33°43' W 118°14'0 0.1
2018-Feb-01 15:30N 33°43' W 118°14'0 0.0
2018-Feb-01 15:00N 33°43' W 118°14'0 0.0
2018-Feb-01 13:30N 33°43' W 118°14'0 0.1
2018-Feb-01 13:00N 33°43' W 118°14'0 0.0
2018-Feb-01 12:31N 33°43' W 118°14'0 0.1
2018-Feb-01 12:00N 33°43' W 118°14'3 3.1
2018-Feb-01 11:00N 33°46' W 118°16'0 0.0
2018-Feb-01 10:30N 33°46' W 118°16'0 0.0
2018-Feb-01 10:00N 33°46' W 118°16'0 0.0
2018-Feb-01 09:27N 33°46' W 118°16'0 0.0
2018-Feb-01 09:00N 33°46' W 118°16'0 0.0
2018-Feb-01 08:30N 33°46' W 118°16'0 0.0
2018-Feb-01 07:30N 33°46' W 118°16'0 0.0
2018-Feb-01 07:00N 33°46' W 118°16'0 0.0
2018-Feb-01 06:30N 33°46' W 118°16'0 0.0
2018-Feb-01 06:00N 33°46' W 118°16'0 0.0
2018-Feb-01 05:30N 33°46' W 118°16'0 0.0
2018-Feb-01 05:00N 33°46' W 118°16'0 0.0
2018-Feb-01 04:30N 33°46' W 118°16'0 0.0
2018-Feb-01 04:00N 33°46' W 118°16'  
Track history (hours):
 
Tides and Currents Weather Stations Pressure Air Temp Water Temp Dewpoint Dewpoint Depression Visibility Wind Speed Wind Dir Waves Ship Positions

Zao Galaxy

Last reported at 2018-Feb-11 03:28 UTC. Time now 2018-Feb-17 19:36 UTC.
Position N 48°31' W 126°28'.

Length 159 m; draft 10 m.

Type: Ship (hazmat cat B). MMSI: 538004682.

Date/timePositionNaut miles runAvg speedWind from/ knotsBaromVisibWave heightAir tempDewpointWater temp
2018-Feb-11 03:28N 48°31' W 126°28'713.4
2018-Feb-11 02:59N 48°31' W 126°18'613.4
2018-Feb-11 02:30N 48°31' W 126°09'713.1
2018-Feb-11 02:00N 48°31' W 125°58'613.3
2018-Feb-11 01:30N 48°31' W 125°49'713.1
2018-Feb-11 01:00N 48°31' W 125°39'713.2
2018-Feb-11 00:30N 48°31' W 125°29'713.2
2018-Feb-11 00:00N 48°31' W 125°19'713.8
2018-Feb-10 23:30N 48°31' W 125°08'714.3
2018-Feb-10 23:01N 48°31' W 124°58'714.1
2018-Feb-10 22:31N 48°31' W 124°47'714.5
2018-Feb-10 22:01N 48°29' W 124°37'714.4
2018-Feb-10 21:31N 48°26' W 124°27'714.3
2018-Feb-10 21:00N 48°23' W 124°17'714.0
2018-Feb-10 20:31N 48°21' W 124°07'714.0
2018-Feb-10 20:00N 48°17' W 123°57'714.1
2018-Feb-10 19:30N 48°16' W 123°47'1510.4
2018-Feb-10 18:05N 48°21' W 123°26'210.9
2018-Feb-10 17:54N 48°23' W 123°24'410.1
2018-Feb-10 17:30N 48°23' W 123°18'611.4
2018-Feb-10 17:00N 48°27' W 123°12'713.9
2018-Feb-10 16:31N 48°34' W 123°13'714.0
2018-Feb-10 16:00N 48°41' W 123°15'612.8
2018-Feb-10 15:30N 48°45' W 123°08'612.2
2018-Feb-10 15:01N 48°49' W 123°01'713.7
2018-Feb-10 14:30N 48°54' W 123°08'713.8
2018-Feb-10 14:00N 48°59' W 123°16'713.7
2018-Feb-10 13:30N 49°03' W 123°23'612.9
2018-Feb-10 13:00N 49°10' W 123°23'713.7
2018-Feb-10 12:30N 49°16' W 123°21'612.1
2018-Feb-10 12:01N 49°19' W 123°12'3 6.8
2018-Feb-10 11:30N 49°19' W 123°07'4 7.8
2018-Feb-10 11:01N 49°18' W 123°02'3 5.4
2018-Feb-10 10:30N 49°18' W 122°57'3 5.1
2018-Feb-10 10:01N 49°18' W 122°54'1 1.9
2018-Feb-10 09:31N 49°17' W 122°52'0 0.0
2018-Feb-10 09:00N 49°17' W 122°52'0 0.0
2018-Feb-10 08:30N 49°17' W 122°52'0 0.0
2018-Feb-10 07:44N 49°17' W 122°52'0 0.0
2018-Feb-10 07:29N 49°17' W 122°52'0 0.0
2018-Feb-10 06:53N 49°17' W 122°52'0 0.0
2018-Feb-10 06:26N 49°17' W 122°52'0 0.0
2018-Feb-10 05:56N 49°17' W 122°52'0 0.0
2018-Feb-10 05:29N 49°17' W 122°52'0 0.0
2018-Feb-10 04:53N 49°17' W 122°52'0 0.0
2018-Feb-10 04:08N 49°17' W 122°52'0 0.0
2018-Feb-10 03:59N 49°17' W 122°52'0 0.0
2018-Feb-10 03:29N 49°17' W 122°52'0 0.0
2018-Feb-10 02:53N 49°17' W 122°52'0 0.0
2018-Feb-10 01:56N 49°17' W 122°52'0 0.0
2018-Feb-10 01:26N 49°17' W 122°52'0 0.0
2018-Feb-10 00:56N 49°17' W 122°52'0 0.0
2018-Feb-09 23:11N 49°17' W 122°52'0 0.0
2018-Feb-09 22:41N 49°17' W 122°52'0 0.0
2018-Feb-08 01:17N 49°17' W 122°52'0 0.0
2018-Feb-08 00:59N 49°17' W 122°52'0 0.0
2018-Feb-08 00:29N 49°17' W 122°52'0 0.0
2018-Feb-07 23:47N 49°17' W 122°52'0 0.0
2018-Feb-07 23:23N 49°17' W 122°52'0 0.0
2018-Feb-07 22:59N 49°17' W 122°52'0 0.0
2018-Feb-07 21:35N 49°17' W 122°52'0 0.0
2018-Feb-07 21:17N 49°17' W 122°52'0 0.0
2018-Feb-07 09:29N 49°17' W 122°52'0 0.0
2018-Feb-07 08:59N 49°17' W 122°52'0 0.0
2018-Feb-07 08:29N 49°17' W 122°52'0 0.9
2018-Feb-07 08:00N 49°18' W 122°53'3 6.4
2018-Feb-07 07:30N 49°18' W 122°58'3 7.0
2018-Feb-07 07:00N 49°18' W 123°03'1 1.3
2018-Feb-07 06:30N 49°18' W 123°04'0 0.1
2018-Feb-07 05:59N 49°18' W 123°04'0 0.1
2018-Feb-07 05:29N 49°18' W 123°04'0 0.1
2018-Feb-07 04:59N 49°18' W 123°04'0 0.1
2018-Feb-07 04:29N 49°18' W 123°04'0 0.1
2018-Feb-07 03:59N 49°18' W 123°04'0 0.0
2018-Feb-07 03:29N 49°18' W 123°04'0 0.0
2018-Feb-07 02:59N 49°18' W 123°04'0 0.0
2018-Feb-07 02:29N 49°18' W 123°04'0 0.1
2018-Feb-07 01:59N 49°18' W 123°04'0 0.0
2018-Feb-07 01:29N 49°18' W 123°04'0 0.1
2018-Feb-07 00:59N 49°18' W 123°04'0 0.0
2018-Feb-07 00:29N 49°18' W 123°04'0 0.1
2018-Feb-06 23:59N 49°18' W 123°04'0 0.1
2018-Feb-06 23:29N 49°18' W 123°04'0 0.0
2018-Feb-06 22:59N 49°18' W 123°04'0 0.1
2018-Feb-06 22:29N 49°18' W 123°04'0 0.0
2018-Feb-06 21:59N 49°18' W 123°04'0 0.1
2018-Feb-06 21:29N 49°18' W 123°04'0 0.0
2018-Feb-06 20:59N 49°18' W 123°04'0 0.0
2018-Feb-06 20:29N 49°18' W 123°04'0 0.0
2018-Feb-06 19:59N 49°18' W 123°04'0 0.2
2018-Feb-06 19:29N 49°18' W 123°04'0 0.2
2018-Feb-06 18:59N 49°18' W 123°04'0 0.0
2018-Feb-06 18:29N 49°18' W 123°04'0 0.1
2018-Feb-06 17:59N 49°18' W 123°04'0 0.0
2018-Feb-06 17:29N 49°18' W 123°04'0 0.0
2018-Feb-06 16:59N 49°18' W 123°04'0 0.1
2018-Feb-06 16:29N 49°18' W 123°04'0 0.1
2018-Feb-06 15:59N 49°18' W 123°04'0 0.0
2018-Feb-06 15:29N 49°18' W 123°04'0 0.1
2018-Feb-06 14:59N 49°18' W 123°04'0 0.1
2018-Feb-06 14:29N 49°18' W 123°04'0 0.0
2018-Feb-06 13:59N 49°18' W 123°04'0 0.1
2018-Feb-06 13:29N 49°18' W 123°04'0 0.0
2018-Feb-06 12:59N 49°18' W 123°04'0 0.5
2018-Feb-06 12:30N 49°18' W 123°04'3 5.8
2018-Feb-06 12:00N 49°19' W 123°08'612.8
2018-Feb-06 11:30N 49°17' W 123°18'714.0
2018-Feb-06 11:00N 49°10' W 123°20'713.7
2018-Feb-06 10:30N 49°03' W 123°19'714.1
2018-Feb-06 10:00N 48°58' W 123°12'713.2
2018-Feb-06 09:30N 48°53' W 123°05'612.8
2018-Feb-06 09:00N 48°48' W 123°01'713.4
2018-Feb-06 08:30N 48°44' W 123°09'511.0
2018-Feb-06 08:00N 48°39' W 123°14'713.4
2018-Feb-06 07:30N 48°33' W 123°12'713.1
2018-Feb-06 07:00N 48°26' W 123°11'713.1
2018-Feb-06 06:30N 48°22' W 123°18'4 8.7
2018-Feb-06 06:00N 48°20' W 123°24'2710.8
2018-Feb-06 03:30N 48°16' W 124°05'5 9.4
2018-Feb-06 03:00N 48°18' W 124°11'5 9.1
2018-Feb-06 02:30N 48°20' W 124°17'613.0
2018-Feb-06 02:00N 48°23' W 124°26'612.6
2018-Feb-06 01:30N 48°26' W 124°35'612.7
2018-Feb-06 01:00N 48°28' W 124°43'612.2
2018-Feb-06 00:30N 48°28' W 124°53'611.1
2018-Feb-06 00:00N 48°27' W 125°01'611.8
2018-Feb-05 23:30N 48°22' W 125°05'713.5
2018-Feb-05 22:59N 48°16' W 125°11'713.1
2018-Feb-05 22:28N 48°12' W 125°19'10413.9
2018-Feb-05 14:57N 47°08' W 127°21'26413.8
2018-Feb-04 19:51N 43°01' W 129°35'515.8
2018-Feb-04 19:31N 42°56' W 129°35'815.8
2018-Feb-04 19:00N 42°47' W 129°36'31614.9
2018-Feb-03 21:46N 37°40' W 128°01'1115.0
2018-Feb-03 21:00N 37°29' W 127°55'814.8
2018-Feb-03 20:27N 37°22' W 127°51'914.8
2018-Feb-03 19:49N 37°13' W 127°46'1914.5
2018-Feb-03 18:30N 36°55' W 127°38'714.4
2018-Feb-03 18:01N 36°48' W 127°35'714.7
2018-Feb-03 17:30N 36°41' W 127°32'714.7
2018-Feb-03 17:00N 36°35' W 127°28'1715.0
2018-Feb-03 15:53N 36°20' W 127°19'714.9
2018-Feb-03 15:26N 36°14' W 127°15'1114.6
2018-Feb-03 14:40N 36°04' W 127°09'214.6
2018-Feb-03 14:30N 36°02' W 127°08'14414.6
2018-Feb-03 04:39N 34°09' W 125°19'1113.8
2018-Feb-03 03:53N 34°00' W 125°11'513.8
2018-Feb-03 03:29N 33°55' W 125°08'4913.1
2018-Feb-02 23:43N 33°41' W 124°12'414.8
2018-Feb-02 23:26N 33°41' W 124°06'614.6
2018-Feb-02 23:00N 33°41' W 123°59'713.7
2018-Feb-02 22:30N 33°41' W 123°51'713.2
2018-Feb-02 22:00N 33°40' W 123°43'713.1
2018-Feb-02 21:30N 33°39' W 123°35'713.2
2018-Feb-02 20:58N 33°38' W 123°27'613.4
2018-Feb-02 20:31N 33°38' W 123°19'713.7
2018-Feb-02 20:00N 33°38' W 123°11'1414.1
2018-Feb-02 19:00N 33°39' W 122°54'714.2
2018-Feb-02 18:30N 33°39' W 122°46'713.7
2018-Feb-02 18:00N 33°39' W 122°37'713.7
2018-Feb-02 17:30N 33°38' W 122°29'713.8
2018-Feb-02 17:00N 33°38' W 122°21'713.9
2018-Feb-02 16:30N 33°38' W 122°12'1413.8
2018-Feb-02 15:30N 33°38' W 121°56'1413.7
2018-Feb-02 14:30N 33°38' W 121°40'713.9
2018-Feb-02 14:00N 33°38' W 121°31'713.8
2018-Feb-02 13:30N 33°38' W 121°23'713.7
2018-Feb-02 13:00N 33°38' W 121°14'713.2
2018-Feb-02 12:29N 33°38' W 121°06'613.1
2018-Feb-02 12:00N 33°38' W 120°59'713.1
2018-Feb-02 11:27N 33°37' W 120°50'613.1
2018-Feb-02 11:00N 33°37' W 120°43'613.2
2018-Feb-02 10:30N 33°37' W 120°35'713.4
2018-Feb-02 10:00N 33°37' W 120°27'713.3
2018-Feb-02 09:30N 33°37' W 120°19'713.3
2018-Feb-02 09:00N 33°37' W 120°11'713.8
2018-Feb-02 08:31N 33°37' W 120°03'713.8
2018-Feb-02 08:00N 33°37' W 119°55'714.0
2018-Feb-02 07:30N 33°37' W 119°46'714.2
2018-Feb-02 07:00N 33°38' W 119°38'713.9
2018-Feb-02 06:30N 33°38' W 119°29'714.0
2018-Feb-02 06:00N 33°38' W 119°21'714.1
2018-Feb-02 05:30N 33°39' W 119°12'612.5
2018-Feb-02 04:59N 33°38' W 119°05'612.0
2018-Feb-02 04:30N 33°38' W 118°58'611.9
2018-Feb-02 03:59N 33°37' W 118°50'510.2
2018-Feb-02 03:29N 33°37' W 118°44'510.3
2018-Feb-02 02:59N 33°36' W 118°38'510.3
2018-Feb-02 02:28N 33°36' W 118°32'611.5
2018-Feb-02 01:57N 33°35' W 118°24'510.6
2018-Feb-02 01:30N 33°35' W 118°19'4 9.0
2018-Feb-02 01:00N 33°37' W 118°14'4 8.8
2018-Feb-02 00:30N 33°41' W 118°12'3 5.6
2018-Feb-02 00:00N 33°43' W 118°13'0 0.5
2018-Feb-01 23:29N 33°43' W 118°14'0 0.0
2018-Feb-01 22:59N 33°43' W 118°14'0 0.0
2018-Feb-01 21:59N 33°43' W 118°14'0 0.0
2018-Feb-01 21:29N 33°43' W 118°14'0 0.0
2018-Feb-01 19:29N 33°43' W 118°14'0 0.1
2018-Feb-01 18:59N 33°43' W 118°14'0 0.1
2018-Feb-01 18:29N 33°43' W 118°14'0 0.1
2018-Feb-01 17:59N 33°43' W 118°14'0 0.0
2018-Feb-01 17:29N 33°43' W 118°14'0 0.0
2018-Feb-01 16:59N 33°43' W 118°14'0 0.1
2018-Feb-01 16:29N 33°43' W 118°14'0 0.0
2018-Feb-01 15:59N 33°43' W 118°14'0 0.1
2018-Feb-01 15:30N 33°43' W 118°14'0 0.0
2018-Feb-01 15:00N 33°43' W 118°14'0 0.0
2018-Feb-01 13:30N 33°43' W 118°14'0 0.1
2018-Feb-01 13:00N 33°43' W 118°14'0 0.0
2018-Feb-01 12:31N 33°43' W 118°14'0 0.1
2018-Feb-01 12:00N 33°43' W 118°14'3 3.1
2018-Feb-01 11:00N 33°46' W 118°16'0 0.0
2018-Feb-01 10:30N 33°46' W 118°16'0 0.0
2018-Feb-01 10:00N 33°46' W 118°16'0 0.0
2018-Feb-01 09:27N 33°46' W 118°16'0 0.0
2018-Feb-01 09:00N 33°46' W 118°16'0 0.0
2018-Feb-01 08:30N 33°46' W 118°16'0 0.0
2018-Feb-01 07:30N 33°46' W 118°16'0 0.0
2018-Feb-01 07:00N 33°46' W 118°16'0 0.0
2018-Feb-01 06:30N 33°46' W 118°16'0 0.0
2018-Feb-01 06:00N 33°46' W 118°16'0 0.0
2018-Feb-01 05:30N 33°46' W 118°16'0 0.0
2018-Feb-01 05:00N 33°46' W 118°16'0 0.0
2018-Feb-01 04:30N 33°46' W 118°16'0 0.0
2018-Feb-01 04:00N 33°46' W 118°16'  

Dump ship's entire track history